Terminal Aerodrome Forecast
Issued by NWS Shreveport, LA

Home | Current Version | Previous Version | Text Only | Print | Product List | Glossary On
Versions: 1 2 3 4 5 6 7 8 9 10 11 12 13 14
000
FTUS44 KSHV 041743
TAFGGG
TAF
KGGG 041743Z 0418/0518 24008KT P6SM BKN035
     FM042000 23010KT P6SM VCTS SCT040CB
     FM050000 16006KT P6SM SCT050
      TEMPO 0510/0514 5SM BR BKN020
     FM051400 21010KT P6SM SCT035=

USA.gov is the U.S. government's official web portal to all federal, state and local government web resources and services.